Time;durP1;ratioP1;P1;durP2;ratioP2;P2;SDS_P1;SDS_P2;PMS_P1;PMS_P2;Temp;Humidity;BMP_temperature;BMP_pressure;BME280_temperature;BME280_humidity;BME280_pressure;Samples;Min_cycle;Max_cycle;Signal;HPM_P1;HPM_P2
2021/01/25 00:01:26;;;;;;;10.32;2.65;;;;;;;8.33;55.10;91609.94;5054695;28;20031;-58
2021/01/25 00:03:52;;;;;;;1.38;1.17;;;;;;;8.25;55.50;91605.84;5054869;28;20036;-56
2021/01/25 00:06:17;;;;;;;2.92;1.30;;;;;;;8.33;55.38;91623.69;5054791;28;20028;-57
2021/01/25 00:08:43;;;;;;;1.52;1.38;;;;;;;8.33;55.61;91640.19;5054701;28;20056;-57
2021/01/25 00:11:08;;;;;;;2.22;1.88;;;;;;;8.34;55.64;91616.88;5054512;28;20465;-58
2021/01/25 00:13:33;;;;;;;1.40;1.25;;;;;;;8.46;55.07;91622.53;5054513;28;20025;-59
2021/01/25 00:15:59;;;;;;;1.92;1.05;;;;;;;8.39;55.42;91612.38;5054558;28;20027;-59
2021/01/25 00:18:24;;;;;;;2.28;1.10;;;;;;;8.30;55.54;91599.34;5069857;28;20035;-54
2021/01/25 00:20:50;;;;;;;2.47;1.10;;;;;;;8.44;55.35;91625.13;5054333;28;20020;-48
2021/01/25 00:23:15;;;;;;;1.88;1.52;;;;;;;8.39;55.86;91624.13;5069824;28;20024;-45
2021/01/25 00:25:41;;;;;;;1.40;1.30;;;;;;;8.46;55.42;91619.06;5054366;28;20139;-48
2021/01/25 00:28:06;;;;;;;1.23;1.13;;;;;;;8.45;55.32;91601.81;5054347;28;20024;-50
2021/01/25 00:30:32;;;;;;;1.52;1.27;;;;;;;8.43;55.38;91568.69;5054136;28;20401;-48
2021/01/25 00:32:57;;;;;;;1.52;1.33;;;;;;;8.51;55.37;91587.78;5053895;28;20106;-49
2021/01/25 00:35:22;;;;;;;2.17;1.70;;;;;;;8.52;55.38;91581.69;5054306;28;20108;-53
2021/01/25 00:37:49;;;;;;;1.42;1.23;;;;;;;8.58;55.34;91571.13;5054146;28;20513;-55
2021/01/25 00:40:14;;;;;;;1.45;1.25;;;;;;;8.51;55.40;91585.03;5054181;28;20548;-56
2021/01/25 00:42:40;;;;;;;1.73;1.60;;;;;;;8.48;55.35;91581.41;5054073;28;20056;-50
2021/01/25 00:45:06;;;;;;;1.67;1.33;;;;;;;8.53;55.41;91591.41;5053967;28;20028;-49
2021/01/25 00:47:32;;;;;;;2.17;1.48;;;;;;;8.56;55.15;91579.22;5054040;28;20108;-55
2021/01/25 00:49:57;;;;;;;1.55;1.20;;;;;;;8.45;54.63;91560.56;5053848;28;20032;-56
2021/01/25 00:52:23;;;;;;;3.33;1.33;;;;;;;8.56;55.15;91589.50;5054024;28;20043;-58
2021/01/25 00:54:48;;;;;;;2.08;1.42;;;;;;;8.59;55.28;91564.31;5053158;28;20021;-59
2021/01/25 00:57:13;;;;;;;1.63;1.52;;;;;;;8.53;55.69;91579.69;5053834;28;20498;-57
2021/01/25 00:59:43;;;;;;;3.60;1.38;;;;;;;8.61;55.08;91575.47;5053752;28;20028;-57
2021/01/25 01:02:09;;;;;;;2.58;1.60;;;;;;;8.58;55.08;91567.63;5052157;28;20501;-56
2021/01/25 01:04:35;;;;;;;3.92;2.10;;;;;;;8.57;55.11;91555.94;5053685;28;20474;-58
2021/01/25 01:07:01;;;;;;;2.20;1.60;;;;;;;8.49;55.91;91543.66;5053615;28;20067;-58
2021/01/25 01:09:26;;;;;;;1.58;1.30;;;;;;;8.57;55.50;91550.44;5053590;28;20053;-58
2021/01/25 01:11:51;;;;;;;1.88;1.30;;;;;;;8.65;55.43;91562.00;5053454;28;20096;-59
2021/01/25 01:14:17;;;;;;;6.43;1.25;;;;;;;8.63;55.70;91552.88;5053556;28;20017;-55
2021/01/25 01:16:42;;;;;;;3.03;1.35;;;;;;;8.64;55.74;91549.53;5053476;28;20032;-54
2021/01/25 01:19:08;;;;;;;4.43;1.08;;;;;;;8.64;55.78;91538.53;5053386;28;20021;-54
2021/01/25 01:21:34;;;;;;;2.58;1.25;;;;;;;8.68;56.07;91549.84;5053354;28;20024;-53
2021/01/25 01:24:01;;;;;;;3.30;1.40;;;;;;;8.68;55.79;91547.09;5053320;28;20024;-54
2021/01/25 01:26:27;;;;;;;1.75;1.20;;;;;;;8.65;56.28;91548.25;5053418;28;20028;-53
2021/01/25 01:28:52;;;;;;;1.58;1.27;;;;;;;8.66;56.26;91541.44;5053167;28;20025;-50
2021/01/25 01:31:17;;;;;;;2.22;1.15;;;;;;;8.70;55.89;91525.22;5052922;28;20041;-57
2021/01/25 01:33:43;;;;;;;3.00;1.38;;;;;;;8.65;55.99;91517.97;5053236;28;20040;-53
2021/01/25 01:36:08;;;;;;;1.48;1.25;;;;;;;8.75;55.93;91532.44;5053198;28;20017;-49
2021/01/25 01:38:34;;;;;;;1.70;1.60;;;;;;;8.71;56.55;91529.41;5053087;28;20416;-56
2021/01/25 01:40:59;;;;;;;1.80;1.45;;;;;;;8.73;56.53;91518.53;5052964;28;20019;-57
2021/01/25 01:43:26;;;;;;;2.15;1.50;;;;;;;8.77;56.21;91529.81;5052740;28;20028;-57
2021/01/25 01:45:51;;;;;;;1.50;1.40;;;;;;;8.65;57.01;91522.75;5052810;28;20021;-54
2021/01/25 01:48:17;;;;;;;1.83;1.40;;;;;;;8.69;56.44;91518.25;5052720;28;20420;-57
2021/01/25 01:50:42;;;;;;;1.63;1.40;;;;;;;8.76;56.61;91530.41;5052835;28;20028;-55
2021/01/25 01:53:08;;;;;;;4.18;1.52;;;;;;;8.76;56.43;91535.91;5052661;28;20025;-56
2021/01/25 01:55:33;;;;;;;6.32;1.40;;;;;;;8.75;56.64;91539.97;5051442;28;20405;-56
2021/01/25 01:58:00;;;;;;;2.88;1.40;;;;;;;8.77;56.59;91540.81;5052797;28;20115;-55
2021/01/25 02:00:25;;;;;;;1.38;1.27;;;;;;;8.68;57.10;91546.34;5051346;28;20079;-55
2021/01/25 02:02:50;;;;;;;1.40;1.10;;;;;;;8.66;56.66;91538.69;5052590;28;20041;-56
2021/01/25 02:05:16;;;;;;;2.25;1.58;;;;;;;8.81;56.57;91545.91;5051667;28;20029;-56
2021/01/25 02:07:45;;;;;;;1.30;1.20;;;;;;;8.78;56.67;91536.78;5051218;28;20112;-58
2021/01/25 02:10:12;;;;;;;1.45;1.20;;;;;;;8.53;56.77;91517.16;5052277;28;20029;-59
2021/01/25 02:12:38;;;;;;;2.13;1.30;;;;;;;8.63;56.88;91533.63;5052199;28;20037;-58
2021/01/25 02:15:04;;;;;;;1.45;1.15;;;;;;;8.60;56.97;91532.75;5067781;28;20037;-58
2021/01/25 02:17:29;;;;;;;1.73;1.17;;;;;;;8.71;56.68;91534.91;5067745;28;20025;-58
2021/01/25 02:20:15;;;;;;;2.20;1.40;;;;;;;8.68;57.34;91532.59;5050958;28;20035;-58
2021/01/25 02:23:07;;;;;;;10.57;1.45;;;;;;;8.80;56.90;91536.91;5067554;28;20075;-59
2021/01/25 02:25:53;;;;;;;3.20;1.23;;;;;;;8.69;56.95;91537.50;5067455;28;20045;-57
2021/01/25 02:28:19;;;;;;;1.40;1.30;;;;;;;8.77;56.41;91535.31;5051065;28;20033;-56
2021/01/25 02:30:45;;;;;;;2.80;1.05;;;;;;;8.79;57.11;91535.44;5052061;28;20036;-55
2021/01/25 02:33:11;;;;;;;2.83;1.40;;;;;;;8.72;56.82;91527.38;5050642;28;20492;-58
2021/01/25 02:35:37;;;;;;;2.90;1.15;;;;;;;8.84;56.38;91545.44;5052044;28;20474;-59
2021/01/25 02:38:05;;;;;;;1.77;1.20;;;;;;;8.76;56.81;91530.41;5067409;28;20039;-58
2021/01/25 02:40:31;;;;;;;1.40;1.30;;;;;;;8.75;57.18;91526.94;5067295;28;20104;-58
2021/01/25 02:42:57;;;;;;;1.27;1.13;;;;;;;8.80;56.64;91533.44;5050640;28;20059;-59
2021/01/25 02:45:23;;;;;;;1.75;0.95;;;;;;;8.75;56.59;91531.72;5051376;28;20054;-60
2021/01/25 02:47:49;;;;;;;3.28;1.60;;;;;;;8.65;57.02;91531.75;5051806;28;20029;-56
2021/01/25 02:50:15;;;;;;;1.85;1.00;;;;;;;8.77;56.74;91546.31;5050376;28;20454;-55
2021/01/25 02:52:40;;;;;;;1.13;1.02;;;;;;;8.86;56.36;91551.09;5051921;28;20067;-54
2021/01/25 02:55:06;;;;;;;1.00;1.00;;;;;;;8.87;56.73;91554.56;5051656;28;20025;-52
2021/01/25 02:57:34;;;;;;;2.15;0.80;;;;;;;8.81;56.56;91541.13;5051575;28;20029;-55
2021/01/25 03:00:01;;;;;;;3.50;1.10;;;;;;;8.79;56.44;91543.72;5050412;28;20021;-50
2021/01/25 03:02:26;;;;;;;1.67;1.30;;;;;;;8.96;56.38;91562.06;5050389;28;20059;-51
2021/01/25 03:04:51;;;;;;;1.50;1.38;;;;;;;8.91;56.29;91550.06;5050447;28;20465;-50
2021/01/25 03:07:17;;;;;;;1.13;1.02;;;;;;;8.93;56.57;91552.22;5050198;28;20104;-55
2021/01/25 03:09:42;;;;;;;1.08;0.98;;;;;;;9.00;56.19;91554.81;5051421;28;20028;-55
2021/01/25 03:12:08;;;;;;;2.72;1.27;;;;;;;9.00;56.48;91559.59;5051461;28;20028;-53
2021/01/25 03:14:33;;;;;;;2.80;1.10;;;;;;;9.03;56.14;91577.72;5051327;28;20036;-51
2021/01/25 03:16:59;;;;;;;2.50;1.05;;;;;;;9.02;56.13;91576.97;5051052;28;20036;-47
2021/01/25 03:19:25;;;;;;;5.13;1.13;;;;;;;9.12;55.87;91579.69;5051229;28;20025;-49
2021/01/25 03:21:52;;;;;;;3.25;1.20;;;;;;;9.04;56.09;91574.38;5050055;28;20094;-48
2021/01/25 03:24:19;;;;;;;3.00;1.02;;;;;;;8.99;56.62;91580.88;5051286;28;20028;-48
2021/01/25 03:26:45;;;;;;;0.90;0.90;;;;;;;9.07;55.70;91575.22;5051409;28;20498;-56
2021/01/25 03:29:10;;;;;;;1.95;1.25;;;;;;;9.13;55.93;91584.63;5051085;28;20028;-53
2021/01/25 03:31:37;;;;;;;2.05;1.00;;;;;;;9.03;56.31;91591.47;5051088;28;20044;-58
2021/01/25 03:34:03;;;;;;;4.93;1.42;;;;;;;8.81;57.06;91565.16;5051050;28;20036;-58
2021/01/25 03:36:29;;;;;;;2.78;1.38;;;;;;;8.94;56.65;91573.66;5031231;28;20040;-58
2021/01/25 03:38:56;;;;;;;1.10;1.00;;;;;;;8.97;57.38;91577.28;5031388;28;20025;-60
2021/01/25 03:41:21;;;;;;;5.55;1.15;;;;;;;8.99;56.61;91580.88;5031106;28;20052;-62
2021/01/25 03:43:47;;;;;;;1.77;1.40;;;;;;;9.00;57.14;91584.38;5031150;28;20068;-62
2021/01/25 03:46:12;;;;;;;9.07;1.52;;;;;;;8.91;57.91;91596.13;5031045;28;20030;-63
2021/01/25 03:48:38;;;;;;;6.60;3.08;;;;;;;8.94;57.62;91609.44;5031055;28;20037;-58
2021/01/25 03:51:03;;;;;;;4.00;3.25;;;;;;;8.92;58.53;91608.59;5031152;28;20115;-58
2021/01/25 03:53:29;;;;;;;7.15;2.25;;;;;;;8.90;58.37;91609.16;5031058;28;20034;-56
2021/01/25 03:55:54;;;;;;;2.97;1.90;;;;;;;8.85;58.49;91603.97;5031332;28;20032;-56
2021/01/25 03:58:20;;;;;;;3.33;1.35;;;;;;;8.86;58.21;91613.66;5030978;28;20029;-61
2021/01/25 04:00:45;;;;;;;1.20;1.10;;;;;;;8.80;59.05;91615.97;5031081;28;20124;-61
2021/01/25 04:03:11;;;;;;;3.13;1.27;;;;;;;8.87;59.48;91618.59;5030792;28;20425;-62
2021/01/25 04:05:37;;;;;;;1.45;1.17;;;;;;;8.78;60.83;91629.59;5048816;28;20087;-62
2021/01/25 04:08:02;;;;;;;2.17;1.60;;;;;;;8.63;62.47;91627.88;5060808;28;20020;-62
2021/01/25 04:10:28;;;;;;;2.53;1.50;;;;;;;8.43;63.97;91606.44;5058470;28;20048;-57
2021/01/25 04:12:53;;;;;;;4.38;1.77;;;;;;;8.45;64.67;91625.84;5050842;28;20037;-53
2021/01/25 04:15:18;;;;;;;2.90;2.08;;;;;;;8.37;66.00;91626.00;5050747;28;20087;-58
2021/01/25 04:17:44;;;;;;;2.10;1.50;;;;;;;8.44;65.25;91627.16;5050725;28;20029;-57
2021/01/25 04:20:10;;;;;;;4.18;2.15;;;;;;;8.51;65.80;91634.53;5050670;28;20417;-59
2021/01/25 04:22:37;;;;;;;2.58;1.70;;;;;;;8.59;66.14;91635.84;5050881;28;20399;-49
2021/01/25 04:25:06;;;;;;;2.38;1.85;;;;;;;8.50;66.75;91639.31;5050682;28;20456;-49
2021/01/25 04:27:31;;;;;;;;;;;;;;;8.47;66.75;91637.72;5051200;28;20029;-50
2021/01/25 04:29:56;;;;;;;1.88;1.50;;;;;;;8.50;67.47;91638.59;5053359;28;19919;-48
2021/01/25 04:32:23;;;;;;;2.03;1.20;;;;;;;8.55;67.94;91638.31;5054047;28;20055;-49
2021/01/25 04:34:49;;;;;;;1.38;1.27;;;;;;;8.49;68.28;91631.66;5054108;28;20047;-57
2021/01/25 04:37:14;;;;;;;1.20;1.10;;;;;;;8.11;70.38;91627.53;5054114;28;20021;-49
2021/01/25 04:39:40;;;;;;;3.67;1.50;;;;;;;8.20;69.98;91639.84;5054164;28;20021;-48
2021/01/25 04:42:05;;;;;;;3.22;1.67;;;;;;;8.02;70.73;91639.25;5054136;28;20551;-54
2021/01/25 04:44:32;;;;;;;1.95;1.40;;;;;;;8.06;70.78;91645.03;5054078;28;20120;-49
2021/01/25 04:46:59;;;;;;;3.00;1.63;;;;;;;7.88;72.02;91631.97;5054029;28;20025;-52
2021/01/25 04:49:25;;;;;;;1.48;0.93;;;;;;;8.08;70.87;91642.44;5052787;28;20029;-51
2021/01/25 04:51:51;;;;;;;1.88;1.25;;;;;;;8.06;70.65;91641.53;5052695;28;20033;-50
2021/01/25 04:54:16;;;;;;;1.33;1.23;;;;;;;8.05;71.40;91645.59;5053879;28;20032;-52
2021/01/25 04:56:42;;;;;;;2.30;1.20;;;;;;;7.98;71.83;91638.22;5052731;28;20489;-51
2021/01/25 04:59:07;;;;;;;1.42;1.33;;;;;;;7.95;71.86;91644.88;5052559;28;20025;-51
2021/01/25 05:01:33;;;;;;;2.15;1.30;;;;;;;7.95;71.07;91639.38;5051188;28;20033;-54
2021/01/25 05:03:58;;;;;;;2.10;1.42;;;;;;;7.85;71.52;91636.59;5053442;28;20033;-50
2021/01/25 05:06:24;;;;;;;4.05;1.58;;;;;;;7.73;72.71;91643.22;5053508;28;20253;-51
2021/01/25 05:08:49;;;;;;;2.00;1.70;;;;;;;7.78;72.52;91637.44;5053628;28;20040;-51
2021/01/25 05:11:16;;;;;;;2.42;1.90;;;;;;;7.80;72.57;91626.59;5053458;28;20025;-50
2021/01/25 05:13:42;;;;;;;1.50;1.40;;;;;;;7.79;72.47;91613.44;5053560;28;20048;-55
2021/01/25 05:16:15;;;;;;;3.55;1.52;;;;;;;7.87;72.25;91642.25;5053349;28;20122;-52
2021/01/25 05:18:41;;;;;;;5.60;3.72;;;;;;;7.85;72.16;91641.38;5053391;28;20029;-54
2021/01/25 05:21:06;;;;;;;11.55;6.10;;;;;;;7.91;71.40;91653.53;5052871;28;20031;-51
2021/01/25 05:23:39;;;;;;;9.15;4.28;;;;;;;7.83;71.90;91660.44;5052817;28;20514;-50
2021/01/25 05:26:08;;;;;;;17.33;7.85;;;;;;;7.68;72.88;91661.41;5052826;28;20037;-48
2021/01/25 05:40:41;;;;;;;17.40;10.25;;;;;;;8.37;69.56;91661.75;5128374;27;20345;-46
2021/01/25 05:43:14;;;;;;;27.77;15.45;;;;;;;7.79;71.78;91660.16;5097030;28;20081;-48
2021/01/25 05:45:39;;;;;;;27.52;18.08;;;;;;;7.88;71.62;91665.69;5103132;28;20031;-45
2021/01/25 05:48:05;;;;;;;25.55;14.23;;;;;;;7.57;72.91;91662.69;5106507;28;20511;-49
2021/01/25 05:50:36;;;;;;;21.77;12.93;;;;;;;7.40;74.13;91662.75;5108063;28;20045;-44
2021/01/25 05:53:06;;;;;;;20.15;11.23;;;;;;;7.57;73.43;91670.19;5107538;28;20116;-44
2021/01/25 05:55:32;;;;;;;37.38;21.63;;;;;;;7.54;73.34;91668.59;5113220;28;20583;-44
2021/01/25 05:57:59;;;;;;;28.42;14.70;;;;;;;7.41;73.52;91658.69;5107885;28;20027;-45
2021/01/25 06:00:26;;;;;;;18.30;11.45;;;;;;;7.30;74.09;91647.53;5109392;28;20156;-45
2021/01/25 06:02:52;;;;;;;29.83;16.42;;;;;;;7.23;74.85;91660.09;5128463;28;20038;-44
2021/01/25 06:05:40;;;;;;;24.15;14.20;;;;;;;7.02;75.91;91667.31;5121475;28;20027;-45
2021/01/25 06:08:30;;;;;;;43.22;22.75;;;;;;;7.13;75.26;91675.75;5089237;28;20066;-44
2021/01/25 06:11:14;;;;;;;249.35;95.30;;;;;;;7.09;75.80;91678.19;5089265;28;20028;-45
2021/01/25 06:14:14;;;;;;;171.10;64.65;;;;;;;7.04;76.46;91681.91;5089522;28;20408;-45
2021/01/25 06:16:43;;;;;;;143.15;61.15;;;;;;;6.90;77.01;91683.56;5086423;28;20587;-45
2021/01/25 06:19:09;;;;;;;115.03;47.05;;;;;;;6.74;77.93;91691.25;5096074;28;20056;-44
2021/01/25 06:21:39;;;;;;;71.63;34.65;;;;;;;6.62;78.85;91698.53;5123130;28;20062;-46
2021/01/25 06:24:06;;;;;;;26.58;13.55;;;;;;;6.71;78.53;91694.41;5107031;28;20020;-45
2021/01/25 06:26:33;;;;;;;69.65;28.00;;;;;;;6.74;77.76;91685.75;5088979;28;20058;-44
2021/01/25 06:29:00;;;;;;;58.25;23.85;;;;;;;6.91;77.29;91685.00;5107402;28;20024;-44
2021/01/25 06:31:26;;;;;;;24.88;13.07;;;;;;;6.90;77.55;91683.56;5110896;28;20020;-44
2021/01/25 06:33:51;;;;;;;7.95;4.95;;;;;;;7.02;74.53;91681.75;5108653;28;20039;-45
2021/01/25 06:36:18;;;;;;;13.80;5.97;;;;;;;7.13;74.99;91672.28;5106766;28;20020;-44
2021/01/25 06:38:46;;;;;;;5.78;3.30;;;;;;;6.93;76.28;91660.47;5092744;28;20048;-45
2021/01/25 06:41:14;;;;;;;3.40;1.90;;;;;;;7.05;76.72;91677.88;5075447;28;20524;-44
2021/01/25 06:43:44;;;;;;;1.55;1.25;;;;;;;7.09;75.07;91682.94;5072759;28;20031;-44
2021/01/25 06:46:15;;;;;;;2.92;2.08;;;;;;;7.15;74.78;91677.91;5072999;28;20028;-45
2021/01/25 06:48:40;;;;;;;3.15;2.83;;;;;;;7.08;74.60;91670.53;5079837;28;20028;-44
2021/01/25 06:51:06;;;;;;;5.30;3.53;;;;;;;7.19;73.89;91681.00;5078953;28;20031;-46
2021/01/25 06:53:32;;;;;;;1.58;1.13;;;;;;;7.23;72.63;91690.28;5070330;28;20027;-45
2021/01/25 06:55:59;;;;;;;5.63;2.92;;;;;;;7.29;71.55;91679.03;5088739;28;20035;-46
2021/01/25 06:58:29;;;;;;;2.10;1.50;;;;;;;7.37;71.33;91690.63;5093030;28;20024;-45
2021/01/25 07:00:54;;;;;;;3.45;1.48;;;;;;;7.43;70.95;91680.81;5092726;28;20031;-44
2021/01/25 07:03:21;;;;;;;2.90;1.92;;;;;;;7.56;70.83;91679.72;5092945;28;20020;-46
2021/01/25 07:05:49;;;;;;;4.70;2.55;;;;;;;7.70;70.89;91677.31;5092518;28;20031;-46
2021/01/25 07:08:25;;;;;;;7.43;3.60;;;;;;;7.75;70.43;91671.56;5093391;28;20032;-45
2021/01/25 07:10:58;;;;;;;5.68;3.92;;;;;;;7.83;69.48;91676.94;5092655;28;20050;-44
2021/01/25 07:13:25;;;;;;;4.15;2.60;;;;;;;7.82;69.42;91675.50;5092824;28;20510;-44
2021/01/25 07:15:52;;;;;;;2.67;2.47;;;;;;;8.01;68.68;91672.78;5092810;28;20038;-45
2021/01/25 07:18:18;;;;;;;3.58;2.72;;;;;;;8.04;69.20;91677.13;5092331;28;20479;-44
2021/01/25 07:20:48;;;;;;;2.17;1.75;;;;;;;8.08;68.24;91677.41;5092502;28;20020;-43
2021/01/25 07:23:17;;;;;;;4.55;2.97;;;;;;;8.21;68.38;91674.28;5092900;28;20024;-43
2021/01/25 07:25:45;;;;;;;6.97;3.25;;;;;;;8.43;67.63;91677.94;5092472;28;20620;-46
2021/01/25 07:28:10;;;;;;;5.15;2.33;;;;;;;8.48;67.17;91682.44;5092220;28;20028;-43
2021/01/25 07:30:36;;;;;;;7.28;3.95;;;;;;;8.57;66.64;91698.97;5092328;28;20031;-41
2021/01/25 07:33:05;;;;;;;9.20;5.53;;;;;;;8.62;66.36;91706.19;5081779;28;20521;-43
2021/01/25 07:35:32;;;;;;;5.38;2.90;;;;;;;8.69;65.59;91715.59;5091866;28;20024;-42
2021/01/25 07:37:58;;;;;;;1.98;1.35;;;;;;;8.75;65.64;91716.78;5092297;28;20020;-41
2021/01/25 07:40:24;;;;;;;5.35;3.00;;;;;;;8.76;65.92;91720.25;5091573;28;20052;-40
2021/01/25 07:42:50;;;;;;;11.98;6.40;;;;;;;8.67;65.75;91718.22;5091246;28;20052;-42
2021/01/25 07:45:16;;;;;;;4.88;3.58;;;;;;;8.67;65.75;91743.72;5091610;28;20478;-41
2021/01/25 07:47:45;;;;;;;2.03;1.45;;;;;;;8.42;65.71;91765.25;5091554;28;20059;-42
2021/01/25 07:50:12;;;;;;;3.33;2.55;;;;;;;8.20;66.13;91761.53;5090182;28;20031;-43
2021/01/25 07:52:38;;;;;;;1.02;0.93;;;;;;;8.07;66.15;91759.19;5090513;28;20492;-43
2021/01/25 07:55:14;;;;;;;2.67;1.40;;;;;;;8.01;66.18;91766.22;5091451;28;20035;-41
2021/01/25 07:57:40;;;;;;;3.05;1.67;;;;;;;7.94;66.13;91781.53;5091416;28;20023;-42
2021/01/25 08:00:19;;;;;;;2.83;1.83;;;;;;;7.69;66.91;91783.72;5091559;28;20103;-42
2021/01/25 08:02:51;;;;;;;2.63;1.15;;;;;;;7.68;66.95;91790.50;5091939;28;20020;-42
2021/01/25 08:05:16;;;;;;;0.77;0.73;;;;;;;7.69;67.49;91791.94;5073004;28;20024;-41
2021/01/25 08:07:42;;;;;;;1.58;1.40;;;;;;;7.53;68.80;91805.19;5091154;28;20039;-42
2021/01/25 08:10:09;;;;;;;4.40;1.60;;;;;;;7.52;69.73;91800.97;5090995;28;20457;-40
2021/01/25 08:12:35;;;;;;;40.10;18.60;;;;;;;7.67;69.58;91826.81;5090959;28;20032;-41
2021/01/25 08:15:04;;;;;;;9.95;5.57;;;;;;;7.81;69.61;91827.88;5091121;28;20149;-42
2021/01/25 08:17:41;;;;;;;7.97;4.03;;;;;;;7.30;70.41;91823.94;5073134;28;20020;-41
2021/01/25 08:20:10;;;;;;;2.22;1.73;;;;;;;7.37;70.82;91855.34;5073222;28;20523;-43
2021/01/25 08:22:42;;;;;;;13.50;7.88;;;;;;;7.26;71.20;91839.34;5072965;28;20028;-43
2021/01/25 08:25:13;;;;;;;6.75;3.58;;;;;;;7.32;71.60;91835.06;5090714;28;20035;-44
2021/01/25 08:27:39;;;;;;;1.73;1.50;;;;;;;7.33;73.07;91833.06;5091186;28;20035;-41
2021/01/25 08:30:08;;;;;;;1.55;1.20;;;;;;;7.44;72.33;91832.56;5090555;28;20404;-41
2021/01/25 08:32:47;;;;;;;10.63;7.07;;;;;;;7.38;70.93;91854.78;5091167;28;20020;-43
2021/01/25 08:35:12;;;;;;;;;;;;;;;7.45;72.15;91856.69;5091475;28;20036;-41
2021/01/25 08:37:38;;;;;;;2.90;1.95;;;;;;;7.41;71.88;91864.63;5090650;28;20391;-41
2021/01/25 08:40:13;;;;;;;2.17;1.48;;;;;;;7.59;71.05;91868.81;5090331;28;20044;-45
2021/01/25 08:42:38;;;;;;;2.40;1.80;;;;;;;7.66;70.35;91872.75;5090726;28;20027;-44
2021/01/25 08:45:10;;;;;;;4.45;3.38;;;;;;;7.68;70.22;91872.91;5090732;28;20028;-40
2021/01/25 08:47:36;;;;;;;3.13;2.38;;;;;;;7.64;69.60;91903.53;5090419;28;20020;-42
2021/01/25 08:50:03;;;;;;;2.83;1.58;;;;;;;7.48;69.59;91918.00;5071132;28;20028;-43
2021/01/25 08:52:40;;;;;;;1.80;1.30;;;;;;;7.42;69.06;91955.97;5072206;28;20099;-42
2021/01/25 08:55:13;;;;;;;5.55;3.22;;;;;;;7.32;69.62;91986.06;5090374;28;20024;-42
2021/01/25 08:57:42;;;;;;;1.80;1.60;;;;;;;7.05;67.75;91998.94;5090386;28;20496;-41
2021/01/25 09:00:19;;;;;;;4.78;2.63;;;;;;;7.13;68.47;92002.34;5072371;28;20016;-45
2021/01/25 09:02:46;;;;;;;1.60;1.38;;;;;;;6.95;66.60;92038.53;5071842;28;20032;-42
2021/01/25 09:05:13;;;;;;;2.38;0.75;;;;;;;6.35;66.40;92032.09;5090284;28;20023;-42
2021/01/25 09:07:39;;;;;;;1.10;0.90;;;;;;;6.13;67.63;92054.13;5090205;28;20048;-44
2021/01/25 09:10:05;;;;;;;1.15;0.90;;;;;;;6.04;68.09;92047.22;5089897;28;20505;-44
2021/01/25 09:12:31;;;;;;;3.30;2.03;;;;;;;6.07;68.37;92055.06;5099219;28;20028;-43
2021/01/25 09:14:57;;;;;;;6.22;1.55;;;;;;;6.08;67.48;92053.78;5110624;28;20452;-41
2021/01/25 09:17:24;;;;;;;3.20;1.50;;;;;;;5.94;68.49;92060.75;5110462;28;20110;-44
2021/01/25 09:19:50;;;;;;;7.78;2.75;;;;;;;5.81;67.16;92069.16;5110826;28;20027;-42
2021/01/25 09:22:15;;;;;;;2.78;1.58;;;;;;;6.10;66.56;92072.41;5110526;28;20019;-41
2021/01/25 09:24:41;;;;;;;6.60;2.55;;;;;;;6.38;65.81;92074.13;5110301;28;20031;-42
2021/01/25 09:27:08;;;;;;;4.47;1.05;;;;;;;6.42;62.12;92060.75;5110743;28;20521;-40
2021/01/25 09:29:33;;;;;;;5.13;1.85;;;;;;;7.25;61.29;92058.25;5110234;28;20056;-40
2021/01/25 09:31:59;;;;;;;9.85;3.55;;;;;;;8.17;58.29;92062.31;5110618;28;20054;-45
2021/01/25 09:34:24;;;;;;;4.13;2.17;;;;;;;7.92;55.98;92060.94;5109267;28;20514;-43
2021/01/25 09:36:50;;;;;;;2.40;1.40;;;;;;;8.11;56.26;92056.34;5110683;28;20030;-42
2021/01/25 09:39:17;;;;;;;1.80;1.20;;;;;;;7.86;55.77;92052.91;5110170;28;20047;-42
2021/01/25 09:41:44;;;;;;;2.05;1.38;;;;;;;7.91;55.00;92054.72;5110204;28;20027;-43
2021/01/25 09:44:10;;;;;;;2.88;2.08;;;;;;;9.07;52.90;92052.19;5110371;28;20036;-41
2021/01/25 09:46:39;;;;;;;3.03;1.75;;;;;;;10.43;50.73;92060.22;5110313;28;20403;-44
2021/01/25 09:49:05;;;;;;;6.93;2.85;;;;;;;11.18;47.68;92058.66;5108102;28;20035;-44
2021/01/25 09:51:30;;;;;;;6.22;3.30;;;;;;;11.48;45.54;92053.75;5110202;28;20024;-44
2021/01/25 09:53:56;;;;;;;3.47;1.88;;;;;;;12.14;44.87;92058.22;5110097;28;20026;-43
2021/01/25 09:56:21;;;;;;;1.83;1.50;;;;;;;13.31;42.01;92065.69;5110192;28;20031;-43
2021/01/25 09:58:47;;;;;;;5.43;2.55;;;;;;;14.19;39.64;92073.81;5110204;28;20491;-42
2021/01/25 10:01:12;;;;;;;4.07;2.00;;;;;;;15.11;36.38;92075.63;5109975;28;20028;-42
2021/01/25 10:03:37;;;;;;;1.58;1.15;;;;;;;15.40;35.05;92066.03;5110107;28;20035;-44
2021/01/25 10:06:03;;;;;;;2.22;1.45;;;;;;;15.74;35.13;92065.13;5110049;28;20020;-43
2021/01/25 10:08:28;;;;;;;3.60;1.50;;;;;;;16.42;33.34;92071.44;5110143;28;20023;-46
2021/01/25 10:10:54;;;;;;;2.00;1.38;;;;;;;16.58;34.00;92065.97;5110160;28;20030;-46
2021/01/25 10:13:19;;;;;;;2.40;0.98;;;;;;;17.52;30.91;92067.03;5070578;28;20027;-45
2021/01/25 10:15:45;;;;;;;2.17;1.58;;;;;;;17.39;33.03;92067.81;5071061;28;20023;-42
2021/01/25 10:18:10;;;;;;;1.38;0.73;;;;;;;17.82;29.72;92056.56;5073089;28;20031;-42
2021/01/25 10:20:36;;;;;;;2.70;1.50;;;;;;;17.55;30.35;92054.63;5073112;28;20477;-42
2021/01/25 10:23:03;;;;;;;2.55;1.50;;;;;;;17.47;29.15;92062.63;5089923;28;20028;-45
2021/01/25 10:25:29;;;;;;;2.97;1.58;;;;;;;18.02;29.46;92044.22;5094655;28;20160;-44
2021/01/25 10:27:54;;;;;;;2.13;1.48;;;;;;;17.39;30.57;92048.28;5094517;28;20038;-43
2021/01/25 10:30:20;;;;;;;3.17;1.10;;;;;;;17.93;29.79;92041.72;5094345;28;20020;-44
2021/01/25 10:32:46;;;;;;;2.75;1.40;;;;;;;17.60;29.50;92047.19;5094418;28;20024;-45
2021/01/25 10:35:12;;;;;;;2.13;1.33;;;;;;;18.41;29.25;92046.59;5094145;28;20032;-43
2021/01/25 10:37:38;;;;;;;2.05;1.42;;;;;;;18.61;28.88;92047.47;5094269;28;20024;-45
2021/01/25 10:40:05;;;;;;;2.55;0.70;;;;;;;18.49;27.80;92055.38;5094091;28;20439;-49
2021/01/25 10:42:30;;;;;;;0.98;0.85;;;;;;;17.47;28.15;92079.34;5094267;28;20024;-44
2021/01/25 10:44:56;;;;;;;1.90;1.27;;;;;;;17.56;28.54;92075.63;5094095;28;20553;-43
2021/01/25 10:47:21;;;;;;;4.95;1.45;;;;;;;16.40;28.06;92073.41;5094147;28;20024;-43
2021/01/25 10:49:48;;;;;;;1.63;0.90;;;;;;;16.49;28.65;92055.75;5094134;28;20040;-42
2021/01/25 10:52:15;;;;;;;0.52;0.40;;;;;;;17.33;27.16;92057.09;5092714;28;20046;-43
2021/01/25 10:54:41;;;;;;;1.30;0.50;;;;;;;17.20;26.01;92062.72;5093887;28;20027;-45
2021/01/25 10:57:07;;;;;;;0.95;0.75;;;;;;;16.14;28.05;92063.69;5094058;28;20484;-45
2021/01/25 10:59:33;;;;;;;2.83;2.05;;;;;;;16.40;26.86;92060.19;5093918;28;20032;-44
2021/01/25 11:01:59;;;;;;;0.82;0.60;;;;;;;17.11;24.80;92056.03;5093750;28;20016;-43
2021/01/25 11:04:24;;;;;;;1.52;0.73;;;;;;;16.13;27.16;92059.47;5091897;28;20110;-45
2021/01/25 11:06:49;;;;;;;0.93;0.70;;;;;;;16.19;27.21;92051.44;5092934;28;20020;-43
2021/01/25 11:09:16;;;;;;;1.20;0.70;;;;;;;16.66;26.11;92049.66;5093629;28;20024;-42
2021/01/25 11:11:41;;;;;;;0.95;0.60;;;;;;;16.75;26.81;92043.13;5091396;28;20051;-45
2021/01/25 11:14:06;;;;;;;0.75;0.57;;;;;;;15.68;28.04;92046.03;5093501;28;20475;-45
2021/01/25 11:16:32;;;;;;;1.00;0.88;;;;;;;16.25;27.35;92032.25;5075556;28;20511;-43
2021/01/25 11:18:58;;;;;;;1.55;0.75;;;;;;;16.64;27.07;92038.41;5093344;28;20057;-43
2021/01/25 11:21:23;;;;;;;2.10;0.95;;;;;;;17.02;27.00;92039.56;5093219;28;20032;-43
2021/01/25 11:23:50;;;;;;;0.60;0.60;;;;;;;16.45;26.05;92039.56;5093213;28;20051;-45
2021/01/25 11:26:17;;;;;;;2.22;1.30;;;;;;;16.52;26.26;92049.66;5093312;28;20031;-43
2021/01/25 11:28:43;;;;;;;1.17;0.88;;;;;;;15.97;26.56;92047.50;5093006;28;20404;-43
2021/01/25 11:31:08;;;;;;;0.95;0.70;;;;;;;15.86;26.29;92043.47;5086734;28;20055;-44
2021/01/25 11:33:34;;;;;;;1.33;1.05;;;;;;;15.67;28.65;92041.81;5092945;28;20024;-45
2021/01/25 11:35:59;;;;;;;2.58;1.48;;;;;;;15.74;29.02;92031.72;5090325;28;20025;-42
2021/01/25 11:38:25;;;;;;;1.85;0.90;;;;;;;15.67;27.44;92044.59;5092744;28;20510;-43
2021/01/25 11:40:50;;;;;;;0.80;0.80;;;;;;;14.61;27.35;92031.13;5093084;28;20504;-44
2021/01/25 11:43:15;;;;;;;1.17;0.85;;;;;;;15.13;28.72;92025.69;5092450;28;20499;-42
2021/01/25 11:45:41;;;;;;;3.53;2.42;;;;;;;15.43;26.16;92043.31;5092732;28;20260;-45
2021/01/25 11:48:07;;;;;;;2.67;1.77;;;;;;;14.70;27.67;92035.81;5092847;28;20031;-45
2021/01/25 11:50:32;;;;;;;2.30;1.23;;;;;;;14.88;28.45;92061.09;5092983;28;20020;-43